New Jersey Responder — WBO8578 — position and weather

sailwx.info

Track history (hours):
 
Tides and Currents Weather Stations Pressure Air Temp Water Temp Dewpoint Dewpoint Depression Visibility Wind Speed Wind Dir Waves Ship Positions

New Jersey Responder

Owner: MARINE SPILL RESPONSE CORP, HERNDON, VA. More information available from US FCC via Universal Licensing System and Coast Guard Vessel Documentation Center.

Last reported at 2017-Jan-17 18:28 UTC. Time now 2017-Jan-20 20:15 UTC.
Position N 40°30' W 074°11'.

; draft 4 m.

Type: Pollution control. MMSI: 366594000.

Date/timePositionNaut miles runAvg speedWind from/ knotsBaromVisibWave heightAir tempDewpointWater temp
2017-Jan-17 18:28N 40°30' W 074°11'8 9.2
2017-Jan-17 17:32N 40°29' W 073°60'2 1.8
2017-Jan-17 16:33N 40°31' W 073°59'9 9.0
2017-Jan-17 15:33N 40°39' W 074°02'5 5.3
2017-Jan-17 14:33N 40°40' W 074°09'3 2.7
2017-Jan-17 13:33N 40°38' W 074°12'  
2017-Jan-11 18:30N 40°35' W 074°13'6 6.5
2017-Jan-11 17:33N 40°39' W 074°06'8 7.6
2017-Jan-11 16:33N 40°45' W 074°01'7 7.3
2017-Jan-11 15:33N 40°38' W 074°03'9 8.7
2017-Jan-11 14:33N 40°29' W 074°03'  
Track history (hours):
 
Tides and Currents Weather Stations Pressure Air Temp Water Temp Dewpoint Dewpoint Depression Visibility Wind Speed Wind Dir Waves Ship Positions

New Jersey Responder

Owner: MARINE SPILL RESPONSE CORP, HERNDON, VA. More information available from US FCC via Universal Licensing System and Coast Guard Vessel Documentation Center.

Last reported at 2017-Jan-17 18:28 UTC. Time now 2017-Jan-20 20:15 UTC.
Position N 40°30' W 074°11'.

; draft 4 m.

Type: Pollution control. MMSI: 366594000.

Date/timePositionNaut miles runAvg speedWind from/ knotsBaromVisibWave heightAir tempDewpointWater temp
2017-Jan-17 18:28N 40°30' W 074°11'8 9.2
2017-Jan-17 17:32N 40°29' W 073°60'2 1.8
2017-Jan-17 16:33N 40°31' W 073°59'9 9.0
2017-Jan-17 15:33N 40°39' W 074°02'5 5.3
2017-Jan-17 14:33N 40°40' W 074°09'3 2.7
2017-Jan-17 13:33N 40°38' W 074°12'  
2017-Jan-11 18:30N 40°35' W 074°13'6 6.5
2017-Jan-11 17:33N 40°39' W 074°06'8 7.6
2017-Jan-11 16:33N 40°45' W 074°01'7 7.3
2017-Jan-11 15:33N 40°38' W 074°03'9 8.7
2017-Jan-11 14:33N 40°29' W 074°03'  

Dump ship's entire track history